sensor_id;sensor_type;location;lat;lon;timestamp;temperature;humidity
9425;DHT22;17139;52.140;11.636;2024-03-07T00:00:50;5.50;57.80
9425;DHT22;17139;52.140;11.636;2024-03-07T00:03:16;5.40;58.10
9425;DHT22;17139;52.140;11.636;2024-03-07T00:05:42;5.30;58.30
9425;DHT22;17139;52.140;11.636;2024-03-07T00:08:08;5.30;58.50
9425;DHT22;17139;52.140;11.636;2024-03-07T00:10:35;5.30;58.70
9425;DHT22;17139;52.140;11.636;2024-03-07T00:13:01;5.30;58.70
9425;DHT22;17139;52.140;11.636;2024-03-07T00:15:27;5.30;58.70
9425;DHT22;17139;52.140;11.636;2024-03-07T00:17:53;5.20;58.60
9425;DHT22;17139;52.140;11.636;2024-03-07T00:20:19;5.20;58.70
9425;DHT22;17139;52.140;11.636;2024-03-07T00:22:45;5.20;58.70
9425;DHT22;17139;52.140;11.636;2024-03-07T00:25:10;5.20;58.70
9425;DHT22;17139;52.140;11.636;2024-03-07T00:27:38;5.20;58.70
9425;DHT22;17139;52.140;11.636;2024-03-07T00:30:05;5.20;58.80
9425;DHT22;17139;52.140;11.636;2024-03-07T00:32:31;5.50;58.80
9425;DHT22;17139;52.140;11.636;2024-03-07T00:34:57;5.40;58.30
9425;DHT22;17139;52.140;11.636;2024-03-07T00:37:23;5.30;58.40
9425;DHT22;17139;52.140;11.636;2024-03-07T00:39:48;5.30;58.60
9425;DHT22;17139;52.140;11.636;2024-03-07T00:42:14;5.20;58.60
9425;DHT22;17139;52.140;11.636;2024-03-07T00:44:41;5.20;58.70
9425;DHT22;17139;52.140;11.636;2024-03-07T00:47:07;5.20;58.70
9425;DHT22;17139;52.140;11.636;2024-03-07T00:49:33;5.20;58.80
9425;DHT22;17139;52.140;11.636;2024-03-07T00:51:59;5.20;58.90
9425;DHT22;17139;52.140;11.636;2024-03-07T00:54:25;5.20;58.90
9425;DHT22;17139;52.140;11.636;2024-03-07T00:56:51;5.20;58.90
9425;DHT22;17139;52.140;11.636;2024-03-07T00:59:16;5.20;59.20
9425;DHT22;17139;52.140;11.636;2024-03-07T01:01:44;5.10;59.00
9425;DHT22;17139;52.140;11.636;2024-03-07T01:04:09;5.10;59.00
9425;DHT22;17139;52.140;11.636;2024-03-07T01:06:36;5.10;59.00
9425;DHT22;17139;52.140;11.636;2024-03-07T01:09:02;5.10;59.30
9425;DHT22;17139;52.140;11.636;2024-03-07T01:11:27;5.10;59.30
9425;DHT22;17139;52.140;11.636;2024-03-07T01:13:53;5.00;59.20
9425;DHT22;17139;52.140;11.636;2024-03-07T01:16:19;5.90;59.00
9425;DHT22;17139;52.140;11.636;2024-03-07T01:18:46;5.70;58.30
9425;DHT22;17139;52.140;11.636;2024-03-07T01:21:12;5.60;58.70
9425;DHT22;17139;52.140;11.636;2024-03-07T01:23:38;5.50;58.80
9425;DHT22;17139;52.140;11.636;2024-03-07T01:26:04;5.30;59.00
9425;DHT22;17139;52.140;11.636;2024-03-07T01:28:30;5.30;59.20
9425;DHT22;17139;52.140;11.636;2024-03-07T01:30:56;5.30;59.30
9425;DHT22;17139;52.140;11.636;2024-03-07T01:33:22;5.30;59.40
9425;DHT22;17139;52.140;11.636;2024-03-07T01:35:50;5.20;59.30
9425;DHT22;17139;52.140;11.636;2024-03-07T01:38:16;5.20;59.30
9425;DHT22;17139;52.140;11.636;2024-03-07T01:40:42;5.20;59.30
9425;DHT22;17139;52.140;11.636;2024-03-07T01:43:08;5.20;59.40
9425;DHT22;17139;52.140;11.636;2024-03-07T01:45:34;5.20;59.50
9425;DHT22;17139;52.140;11.636;2024-03-07T01:48:00;5.10;59.40
9425;DHT22;17139;52.140;11.636;2024-03-07T01:50:26;5.10;59.50
9425;DHT22;17139;52.140;11.636;2024-03-07T01:52:54;5.10;59.50
9425;DHT22;17139;52.140;11.636;2024-03-07T01:55:21;5.10;59.50
9425;DHT22;17139;52.140;11.636;2024-03-07T01:57:47;6.10;59.50
9425;DHT22;17139;52.140;11.636;2024-03-07T02:00:13;5.80;58.70
9425;DHT22;17139;52.140;11.636;2024-03-07T02:02:40;5.60;59.00
9425;DHT22;17139;52.140;11.636;2024-03-07T02:05:06;5.40;59.20
9425;DHT22;17139;52.140;11.636;2024-03-07T02:07:32;5.30;59.40
9425;DHT22;17139;52.140;11.636;2024-03-07T02:10:03;5.20;59.60
9425;DHT22;17139;52.140;11.636;2024-03-07T02:12:29;5.20;59.70
9425;DHT22;17139;52.140;11.636;2024-03-07T02:14:55;5.10;59.80
9425;DHT22;17139;52.140;11.636;2024-03-07T02:17:21;5.10;59.90
9425;DHT22;17139;52.140;11.636;2024-03-07T02:19:47;5.10;59.90
9425;DHT22;17139;52.140;11.636;2024-03-07T02:22:14;5.10;59.90
9425;DHT22;17139;52.140;11.636;2024-03-07T02:24:40;5.10;59.90
9425;DHT22;17139;52.140;11.636;2024-03-07T02:27:06;5.00;59.90
9425;DHT22;17139;52.140;11.636;2024-03-07T02:29:32;5.00;59.80
9425;DHT22;17139;52.140;11.636;2024-03-07T02:31:58;5.10;59.90
9425;DHT22;17139;52.140;11.636;2024-03-07T02:34:23;5.10;59.90
9425;DHT22;17139;52.140;11.636;2024-03-07T02:36:49;5.00;59.90
9425;DHT22;17139;52.140;11.636;2024-03-07T02:39:16;5.30;60.10
9425;DHT22;17139;52.140;11.636;2024-03-07T02:41:42;5.30;59.60
9425;DHT22;17139;52.140;11.636;2024-03-07T02:44:08;5.30;59.80
9425;DHT22;17139;52.140;11.636;2024-03-07T02:46:34;5.80;60.40
9425;DHT22;17139;52.140;11.636;2024-03-07T02:49:00;5.60;59.40
9425;DHT22;17139;52.140;11.636;2024-03-07T02:51:26;5.40;59.50
9425;DHT22;17139;52.140;11.636;2024-03-07T02:53:52;5.30;59.70
9425;DHT22;17139;52.140;11.636;2024-03-07T02:56:19;5.20;60.00
9425;DHT22;17139;52.140;11.636;2024-03-07T02:58:45;5.10;60.00
9425;DHT22;17139;52.140;11.636;2024-03-07T03:01:11;5.10;60.10
9425;DHT22;17139;52.140;11.636;2024-03-07T03:03:37;5.10;60.10
9425;DHT22;17139;52.140;11.636;2024-03-07T03:06:03;5.00;60.30
9425;DHT22;17139;52.140;11.636;2024-03-07T03:08:29;5.00;60.40
9425;DHT22;17139;52.140;11.636;2024-03-07T03:10:55;5.00;60.40
9425;DHT22;17139;52.140;11.636;2024-03-07T03:13:23;4.90;60.30
9425;DHT22;17139;52.140;11.636;2024-03-07T03:15:49;5.00;60.40
9425;DHT22;17139;52.140;11.636;2024-03-07T03:18:14;5.00;60.40
9425;DHT22;17139;52.140;11.636;2024-03-07T03:20:40;5.00;60.40
9425;DHT22;17139;52.140;11.636;2024-03-07T03:23:06;5.00;60.40
9425;DHT22;17139;52.140;11.636;2024-03-07T03:25:32;5.00;60.30
9425;DHT22;17139;52.140;11.636;2024-03-07T03:27:58;5.00;60.30
9425;DHT22;17139;52.140;11.636;2024-03-07T03:30:25;5.00;60.50
9425;DHT22;17139;52.140;11.636;2024-03-07T03:32:51;4.90;60.50
9425;DHT22;17139;52.140;11.636;2024-03-07T03:35:17;4.90;60.60
9425;DHT22;17139;52.140;11.636;2024-03-07T03:37:43;4.80;60.50
9425;DHT22;17139;52.140;11.636;2024-03-07T03:40:10;4.80;60.70
9425;DHT22;17139;52.140;11.636;2024-03-07T03:42:36;4.70;60.90
9425;DHT22;17139;52.140;11.636;2024-03-07T03:45:02;4.70;61.10
9425;DHT22;17139;52.140;11.636;2024-03-07T03:47:29;4.70;61.00
9425;DHT22;17139;52.140;11.636;2024-03-07T03:49:55;4.70;61.00
9425;DHT22;17139;52.140;11.636;2024-03-07T03:52:21;4.70;61.20
9425;DHT22;17139;52.140;11.636;2024-03-07T03:54:47;4.60;61.10
9425;DHT22;17139;52.140;11.636;2024-03-07T03:57:13;4.70;61.20
9425;DHT22;17139;52.140;11.636;2024-03-07T03:59:42;4.70;61.10
9425;DHT22;17139;52.140;11.636;2024-03-07T04:02:08;4.70;61.00
9425;DHT22;17139;52.140;11.636;2024-03-07T04:04:38;5.00;61.50
9425;DHT22;17139;52.140;11.636;2024-03-07T04:07:04;5.00;60.60
9425;DHT22;17139;52.140;11.636;2024-03-07T04:09:30;4.90;60.70
9425;DHT22;17139;52.140;11.636;2024-03-07T04:11:56;5.20;61.50
9425;DHT22;17139;52.140;11.636;2024-03-07T04:14:23;5.10;60.60
9425;DHT22;17139;52.140;11.636;2024-03-07T04:16:49;5.00;60.70
9425;DHT22;17139;52.140;11.636;2024-03-07T04:19:15;5.00;61.00
9425;DHT22;17139;52.140;11.636;2024-03-07T04:21:42;4.90;61.10
9425;DHT22;17139;52.140;11.636;2024-03-07T04:24:08;4.80;61.20
9425;DHT22;17139;52.140;11.636;2024-03-07T04:26:33;4.80;61.20
9425;DHT22;17139;52.140;11.636;2024-03-07T04:28:59;4.80;61.30
9425;DHT22;17139;52.140;11.636;2024-03-07T04:31:25;4.80;61.30
9425;DHT22;17139;52.140;11.636;2024-03-07T04:33:51;4.80;61.40
9425;DHT22;17139;52.140;11.636;2024-03-07T04:36:17;4.80;61.30
9425;DHT22;17139;52.140;11.636;2024-03-07T04:38:44;4.80;61.40
9425;DHT22;17139;52.140;11.636;2024-03-07T04:41:10;4.70;61.30
9425;DHT22;17139;52.140;11.636;2024-03-07T04:43:36;4.70;61.40
9425;DHT22;17139;52.140;11.636;2024-03-07T04:46:02;4.70;61.40
9425;DHT22;17139;52.140;11.636;2024-03-07T04:48:28;5.20;62.20
9425;DHT22;17139;52.140;11.636;2024-03-07T04:50:54;5.20;61.00
9425;DHT22;17139;52.140;11.636;2024-03-07T04:53:20;5.10;61.00
9425;DHT22;17139;52.140;11.636;2024-03-07T04:55:47;5.70;62.10
9425;DHT22;17139;52.140;11.636;2024-03-07T04:58:13;5.50;60.80
9425;DHT22;17139;52.140;11.636;2024-03-07T05:00:39;5.30;61.00
9425;DHT22;17139;52.140;11.636;2024-03-07T05:03:05;5.20;61.30
9425;DHT22;17139;52.140;11.636;2024-03-07T05:05:30;5.10;61.50
9425;DHT22;17139;52.140;11.636;2024-03-07T05:07:56;5.00;61.50
9425;DHT22;17139;52.140;11.636;2024-03-07T05:10:22;4.90;61.60
9425;DHT22;17139;52.140;11.636;2024-03-07T05:12:49;4.90;61.70
9425;DHT22;17139;52.140;11.636;2024-03-07T05:15:15;4.90;61.70
9425;DHT22;17139;52.140;11.636;2024-03-07T05:17:41;5.70;61.90
9425;DHT22;17139;52.140;11.636;2024-03-07T05:20:08;5.60;61.10
9425;DHT22;17139;52.140;11.636;2024-03-07T05:22:34;5.30;60.90
9425;DHT22;17139;52.140;11.636;2024-03-07T05:24:59;6.00;61.70
9425;DHT22;17139;52.140;11.636;2024-03-07T05:27:25;5.60;60.60
9425;DHT22;17139;52.140;11.636;2024-03-07T05:29:53;5.30;61.00
9425;DHT22;17139;52.140;11.636;2024-03-07T05:32:20;5.70;61.80
9425;DHT22;17139;52.140;11.636;2024-03-07T05:34:46;5.50;61.10
9425;DHT22;17139;52.140;11.636;2024-03-07T05:37:12;5.30;61.40
9425;DHT22;17139;52.140;11.636;2024-03-07T05:39:38;5.10;61.60
9425;DHT22;17139;52.140;11.636;2024-03-07T05:42:04;5.00;61.90
9425;DHT22;17139;52.140;11.636;2024-03-07T05:44:30;4.90;62.00
9425;DHT22;17139;52.140;11.636;2024-03-07T05:46:57;4.90;62.10
9425;DHT22;17139;52.140;11.636;2024-03-07T05:49:23;4.80;62.80
9425;DHT22;17139;52.140;11.636;2024-03-07T05:51:48;4.70;62.30
9425;DHT22;17139;52.140;11.636;2024-03-07T05:54:14;4.70;62.20
9425;DHT22;17139;52.140;11.636;2024-03-07T05:56:41;4.70;62.30
9425;DHT22;17139;52.140;11.636;2024-03-07T05:59:07;4.70;62.20
9425;DHT22;17139;52.140;11.636;2024-03-07T06:01:33;4.80;62.10
9425;DHT22;17139;52.140;11.636;2024-03-07T06:04:00;4.80;62.00
9425;DHT22;17139;52.140;11.636;2024-03-07T06:06:26;4.80;62.00
9425;DHT22;17139;52.140;11.636;2024-03-07T06:08:52;4.80;62.00
9425;DHT22;17139;52.140;11.636;2024-03-07T06:11:18;4.80;61.90
9425;DHT22;17139;52.140;11.636;2024-03-07T06:13:44;4.80;61.90
9425;DHT22;17139;52.140;11.636;2024-03-07T06:16:09;4.80;61.90
9425;DHT22;17139;52.140;11.636;2024-03-07T06:18:35;4.90;61.90
9425;DHT22;17139;52.140;11.636;2024-03-07T06:21:03;4.90;61.90
9425;DHT22;17139;52.140;11.636;2024-03-07T06:23:29;4.80;61.80
9425;DHT22;17139;52.140;11.636;2024-03-07T06:25:54;4.90;61.90
9425;DHT22;17139;52.140;11.636;2024-03-07T06:28:20;4.90;61.90
9425;DHT22;17139;52.140;11.636;2024-03-07T06:30:46;4.90;61.90
9425;DHT22;17139;52.140;11.636;2024-03-07T06:33:13;4.90;61.90
9425;DHT22;17139;52.140;11.636;2024-03-07T06:35:39;4.90;62.60
9425;DHT22;17139;52.140;11.636;2024-03-07T06:38:07;4.90;61.90
9425;DHT22;17139;52.140;11.636;2024-03-07T06:40:33;4.90;61.80
9425;DHT22;17139;52.140;11.636;2024-03-07T06:42:58;4.90;61.60
9425;DHT22;17139;52.140;11.636;2024-03-07T06:45:24;5.00;61.70
9425;DHT22;17139;52.140;11.636;2024-03-07T06:47:50;5.80;61.60
9425;DHT22;17139;52.140;11.636;2024-03-07T06:50:16;5.60;60.70
9425;DHT22;17139;52.140;11.636;2024-03-07T06:52:42;5.20;60.90
9425;DHT22;17139;52.140;11.636;2024-03-07T06:55:09;6.00;61.40
9425;DHT22;17139;52.140;11.636;2024-03-07T06:57:35;5.60;60.70
9425;DHT22;17139;52.140;11.636;2024-03-07T07:00:01;5.30;61.20
9425;DHT22;17139;52.140;11.636;2024-03-07T07:02:27;5.20;61.70
9425;DHT22;17139;52.140;11.636;2024-03-07T07:04:52;5.10;61.90
9425;DHT22;17139;52.140;11.636;2024-03-07T07:07:18;5.10;62.10
9425;DHT22;17139;52.140;11.636;2024-03-07T07:09:44;5.10;62.00
9425;DHT22;17139;52.140;11.636;2024-03-07T07:12:11;5.10;61.90
9425;DHT22;17139;52.140;11.636;2024-03-07T07:14:37;5.00;61.90
9425;DHT22;17139;52.140;11.636;2024-03-07T07:17:03;5.00;62.10
9425;DHT22;17139;52.140;11.636;2024-03-07T07:19:29;5.00;62.10
9425;DHT22;17139;52.140;11.636;2024-03-07T07:21:54;5.10;62.10
9425;DHT22;17139;52.140;11.636;2024-03-07T07:24:20;5.10;61.80
9425;DHT22;17139;52.140;11.636;2024-03-07T07:26:46;5.20;61.70
9425;DHT22;17139;52.140;11.636;2024-03-07T07:29:13;5.80;61.20
9425;DHT22;17139;52.140;11.636;2024-03-07T07:31:39;5.70;60.50
9425;DHT22;17139;52.140;11.636;2024-03-07T07:34:05;5.50;60.90
9425;DHT22;17139;52.140;11.636;2024-03-07T07:36:30;6.10;60.10
9425;DHT22;17139;52.140;11.636;2024-03-07T07:38:56;5.80;59.80
9425;DHT22;17139;52.140;11.636;2024-03-07T07:41:22;5.60;60.40
9425;DHT22;17139;52.140;11.636;2024-03-07T07:43:48;5.40;60.90
9425;DHT22;17139;52.140;11.636;2024-03-07T07:46:15;5.30;61.10
9425;DHT22;17139;52.140;11.636;2024-03-07T07:48:41;5.20;61.30
9425;DHT22;17139;52.140;11.636;2024-03-07T07:51:07;5.20;61.40
9425;DHT22;17139;52.140;11.636;2024-03-07T07:53:32;5.20;61.60
9425;DHT22;17139;52.140;11.636;2024-03-07T07:55:58;5.20;61.50
9425;DHT22;17139;52.140;11.636;2024-03-07T07:58:24;5.30;61.30
9425;DHT22;17139;52.140;11.636;2024-03-07T08:00:50;5.40;61.30
9425;DHT22;17139;52.140;11.636;2024-03-07T08:03:17;5.40;61.20
9425;DHT22;17139;52.140;11.636;2024-03-07T08:05:43;5.40;61.00
9425;DHT22;17139;52.140;11.636;2024-03-07T08:08:09;5.30;60.80
9425;DHT22;17139;52.140;11.636;2024-03-07T08:10:37;6.00;59.50
9425;DHT22;17139;52.140;11.636;2024-03-07T08:13:04;5.80;59.50
9425;DHT22;17139;52.140;11.636;2024-03-07T08:15:31;5.60;60.00
9425;DHT22;17139;52.140;11.636;2024-03-07T08:17:57;5.50;60.30
9425;DHT22;17139;52.140;11.636;2024-03-07T08:20:25;5.40;60.60
9425;DHT22;17139;52.140;11.636;2024-03-07T08:22:52;5.40;60.80
9425;DHT22;17139;52.140;11.636;2024-03-07T08:25:19;5.30;60.70
9425;DHT22;17139;52.140;11.636;2024-03-07T08:27:47;5.40;60.80
9425;DHT22;17139;52.140;11.636;2024-03-07T08:30:13;5.40;60.60
9425;DHT22;17139;52.140;11.636;2024-03-07T08:32:39;5.40;60.50
9425;DHT22;17139;52.140;11.636;2024-03-07T08:35:07;5.50;60.70
9425;DHT22;17139;52.140;11.636;2024-03-07T08:37:35;5.60;60.60
9425;DHT22;17139;52.140;11.636;2024-03-07T08:40:01;5.60;60.50
9425;DHT22;17139;52.140;11.636;2024-03-07T08:42:27;5.60;60.40
9425;DHT22;17139;52.140;11.636;2024-03-07T08:44:53;5.60;60.40
9425;DHT22;17139;52.140;11.636;2024-03-07T08:47:19;5.60;60.40
9425;DHT22;17139;52.140;11.636;2024-03-07T08:49:44;5.70;60.50
9425;DHT22;17139;52.140;11.636;2024-03-07T08:52:10;6.10;59.30
9425;DHT22;17139;52.140;11.636;2024-03-07T08:54:37;6.00;59.30
9425;DHT22;17139;52.140;11.636;2024-03-07T08:57:03;6.00;59.80
9425;DHT22;17139;52.140;11.636;2024-03-07T08:59:29;6.00;60.00
9425;DHT22;17139;52.140;11.636;2024-03-07T09:01:55;6.10;60.10
9425;DHT22;17139;52.140;11.636;2024-03-07T09:04:21;6.10;59.90
9425;DHT22;17139;52.140;11.636;2024-03-07T09:06:47;6.30;59.90
9425;DHT22;17139;52.140;11.636;2024-03-07T09:09:12;6.50;58.90
9425;DHT22;17139;52.140;11.636;2024-03-07T09:11:40;6.70;59.30
9425;DHT22;17139;52.140;11.636;2024-03-07T09:14:05;6.90;58.40
9425;DHT22;17139;52.140;11.636;2024-03-07T09:16:31;7.10;58.00
9425;DHT22;17139;52.140;11.636;2024-03-07T09:18:57;7.10;57.80
9425;DHT22;17139;52.140;11.636;2024-03-07T09:21:23;7.00;57.70
9425;DHT22;17139;52.140;11.636;2024-03-07T09:23:48;6.90;57.90
9425;DHT22;17139;52.140;11.636;2024-03-07T09:26:14;6.70;57.80
9425;DHT22;17139;52.140;11.636;2024-03-07T09:28:41;6.50;58.10
9425;DHT22;17139;52.140;11.636;2024-03-07T09:31:07;6.40;58.20
9425;DHT22;17139;52.140;11.636;2024-03-07T09:33:33;6.30;59.30
9425;DHT22;17139;52.140;11.636;2024-03-07T09:35:59;6.20;59.40
9425;DHT22;17139;52.140;11.636;2024-03-07T09:38:25;6.00;59.50
9425;DHT22;17139;52.140;11.636;2024-03-07T09:40:50;6.10;59.00
9425;DHT22;17139;52.140;11.636;2024-03-07T09:43:17;6.00;59.10
9425;DHT22;17139;52.140;11.636;2024-03-07T09:45:44;6.00;59.40
9425;DHT22;17139;52.140;11.636;2024-03-07T09:48:11;6.00;59.50
9425;DHT22;17139;52.140;11.636;2024-03-07T09:50:37;6.00;59.50
9425;DHT22;17139;52.140;11.636;2024-03-07T09:53:04;6.10;59.50
9425;DHT22;17139;52.140;11.636;2024-03-07T09:55:30;6.20;59.40
9425;DHT22;17139;52.140;11.636;2024-03-07T09:57:58;6.40;58.30
9425;DHT22;17139;52.140;11.636;2024-03-07T10:00:24;6.60;58.20
9425;DHT22;17139;52.140;11.636;2024-03-07T10:02:54;6.80;57.90
9425;DHT22;17139;52.140;11.636;2024-03-07T10:05:22;7.10;57.50
9425;DHT22;17139;52.140;11.636;2024-03-07T10:07:50;7.30;57.40
9425;DHT22;17139;52.140;11.636;2024-03-07T10:10:16;7.50;57.20
9425;DHT22;17139;52.140;11.636;2024-03-07T10:12:42;7.70;57.00
9425;DHT22;17139;52.140;11.636;2024-03-07T10:15:08;7.90;56.60
9425;DHT22;17139;52.140;11.636;2024-03-07T10:17:34;8.20;54.60
9425;DHT22;17139;52.140;11.636;2024-03-07T10:20:01;8.30;55.50
9425;DHT22;17139;52.140;11.636;2024-03-07T10:22:27;8.30;55.60
9425;DHT22;17139;52.140;11.636;2024-03-07T10:24:54;8.70;53.10
9425;DHT22;17139;52.140;11.636;2024-03-07T10:27:20;8.80;54.60
9425;DHT22;17139;52.140;11.636;2024-03-07T10:29:47;8.80;55.10
9425;DHT22;17139;52.140;11.636;2024-03-07T10:32:13;8.80;55.20
9425;DHT22;17139;52.140;11.636;2024-03-07T10:34:39;8.90;55.40
9425;DHT22;17139;52.140;11.636;2024-03-07T10:37:06;9.00;55.30
9425;DHT22;17139;52.140;11.636;2024-03-07T10:39:32;9.00;55.10
9425;DHT22;17139;52.140;11.636;2024-03-07T10:42:00;9.00;55.80
9425;DHT22;17139;52.140;11.636;2024-03-07T10:44:27;9.00;55.20
9425;DHT22;17139;52.140;11.636;2024-03-07T10:46:55;9.10;55.20
9425;DHT22;17139;52.140;11.636;2024-03-07T10:49:22;9.10;55.20
9425;DHT22;17139;52.140;11.636;2024-03-07T10:51:58;9.00;55.20
9425;DHT22;17139;52.140;11.636;2024-03-07T10:54:36;9.00;55.10
9425;DHT22;17139;52.140;11.636;2024-03-07T10:57:11;8.90;55.70
9425;DHT22;17139;52.140;11.636;2024-03-07T10:59:49;8.80;54.90
9425;DHT22;17139;52.140;11.636;2024-03-07T11:02:27;9.60;49.50
9425;DHT22;17139;52.140;11.636;2024-03-07T11:04:56;9.30;52.30
9425;DHT22;17139;52.140;11.636;2024-03-07T11:07:23;9.30;52.00
9425;DHT22;17139;52.140;11.636;2024-03-07T11:09:51;9.30;53.30
9425;DHT22;17139;52.140;11.636;2024-03-07T11:12:18;9.30;53.90
9425;DHT22;17139;52.140;11.636;2024-03-07T11:14:45;9.40;54.20
9425;DHT22;17139;52.140;11.636;2024-03-07T11:17:13;9.40;54.00
9425;DHT22;17139;52.140;11.636;2024-03-07T11:19:39;9.30;54.10
9425;DHT22;17139;52.140;11.636;2024-03-07T11:22:05;9.30;54.10
9425;DHT22;17139;52.140;11.636;2024-03-07T11:24:31;9.30;54.20
9425;DHT22;17139;52.140;11.636;2024-03-07T11:27:02;9.20;54.10
9425;DHT22;17139;52.140;11.636;2024-03-07T11:29:52;9.00;54.00
9425;DHT22;17139;52.140;11.636;2024-03-07T11:32:18;8.70;54.10
9425;DHT22;17139;52.140;11.636;2024-03-07T11:34:44;8.50;54.70
9425;DHT22;17139;52.140;11.636;2024-03-07T11:37:18;8.30;54.90
9425;DHT22;17139;52.140;11.636;2024-03-07T11:39:45;8.20;55.00
9425;DHT22;17139;52.140;11.636;2024-03-07T11:42:23;8.00;55.20
9425;DHT22;17139;52.140;11.636;2024-03-07T11:44:49;7.90;55.10
9425;DHT22;17139;52.140;11.636;2024-03-07T11:47:15;7.70;54.90
9425;DHT22;17139;52.140;11.636;2024-03-07T11:49:41;7.70;55.20
9425;DHT22;17139;52.140;11.636;2024-03-07T11:52:07;8.10;51.90
9425;DHT22;17139;52.140;11.636;2024-03-07T11:54:33;8.10;53.40
9425;DHT22;17139;52.140;11.636;2024-03-07T11:56:58;8.00;54.10
9425;DHT22;17139;52.140;11.636;2024-03-07T11:59:25;8.00;54.30
9425;DHT22;17139;52.140;11.636;2024-03-07T12:01:53;7.90;54.40
9425;DHT22;17139;52.140;11.636;2024-03-07T12:04:19;7.90;54.70
9425;DHT22;17139;52.140;11.636;2024-03-07T12:06:51;7.90;54.80
9425;DHT22;17139;52.140;11.636;2024-03-07T12:09:17;7.90;54.50
9425;DHT22;17139;52.140;11.636;2024-03-07T12:11:42;7.80;54.90
9425;DHT22;17139;52.140;11.636;2024-03-07T12:14:08;7.70;54.40
9425;DHT22;17139;52.140;11.636;2024-03-07T12:16:35;7.70;54.70
9425;DHT22;17139;52.140;11.636;2024-03-07T12:19:01;7.70;54.80
9425;DHT22;17139;52.140;11.636;2024-03-07T12:21:27;7.70;54.80
9425;DHT22;17139;52.140;11.636;2024-03-07T12:23:53;7.80;54.80
9425;DHT22;17139;52.140;11.636;2024-03-07T12:26:20;7.80;54.70
9425;DHT22;17139;52.140;11.636;2024-03-07T12:28:46;8.40;51.20
9425;DHT22;17139;52.140;11.636;2024-03-07T12:31:11;8.30;52.80
9425;DHT22;17139;52.140;11.636;2024-03-07T12:33:39;8.20;53.60
9425;DHT22;17139;52.140;11.636;2024-03-07T12:36:05;8.70;50.00
9425;DHT22;17139;52.140;11.636;2024-03-07T12:38:32;8.50;51.90
9425;DHT22;17139;52.140;11.636;2024-03-07T12:41:04;8.40;52.90
9425;DHT22;17139;52.140;11.636;2024-03-07T12:43:32;8.30;53.30
9425;DHT22;17139;52.140;11.636;2024-03-07T12:45:58;8.30;53.80
9425;DHT22;17139;52.140;11.636;2024-03-07T12:48:24;8.20;54.00
9425;DHT22;17139;52.140;11.636;2024-03-07T12:50:52;8.10;54.00
9425;DHT22;17139;52.140;11.636;2024-03-07T12:53:18;8.10;53.90
9425;DHT22;17139;52.140;11.636;2024-03-07T12:55:44;8.10;54.00
9425;DHT22;17139;52.140;11.636;2024-03-07T12:58:09;8.00;53.90
9425;DHT22;17139;52.140;11.636;2024-03-07T13:00:35;7.90;54.00
9425;DHT22;17139;52.140;11.636;2024-03-07T13:03:02;7.90;54.20
9425;DHT22;17139;52.140;11.636;2024-03-07T13:05:28;7.90;54.20
9425;DHT22;17139;52.140;11.636;2024-03-07T13:07:55;8.00;54.20
9425;DHT22;17139;52.140;11.636;2024-03-07T13:10:20;8.00;54.00
9425;DHT22;17139;52.140;11.636;2024-03-07T13:12:46;8.30;50.90
9425;DHT22;17139;52.140;11.636;2024-03-07T13:15:12;8.30;52.40
9425;DHT22;17139;52.140;11.636;2024-03-07T13:17:38;8.30;53.10
9425;DHT22;17139;52.140;11.636;2024-03-07T13:20:05;8.60;49.70
9425;DHT22;17139;52.140;11.636;2024-03-07T13:22:31;8.50;51.80
9425;DHT22;17139;52.140;11.636;2024-03-07T13:24:58;8.50;52.60
9425;DHT22;17139;52.140;11.636;2024-03-07T13:27:24;8.40;53.00
9425;DHT22;17139;52.140;11.636;2024-03-07T13:29:50;8.40;53.30
9425;DHT22;17139;52.140;11.636;2024-03-07T13:32:15;8.30;53.10
9425;DHT22;17139;52.140;11.636;2024-03-07T13:34:41;8.20;53.20
9425;DHT22;17139;52.140;11.636;2024-03-07T13:37:07;8.30;53.40
9425;DHT22;17139;52.140;11.636;2024-03-07T13:39:33;8.40;53.50
9425;DHT22;17139;52.140;11.636;2024-03-07T13:42:00;8.40;53.50
9425;DHT22;17139;52.140;11.636;2024-03-07T13:44:26;8.50;53.50
9425;DHT22;17139;52.140;11.636;2024-03-07T13:46:52;8.40;53.40
9425;DHT22;17139;52.140;11.636;2024-03-07T13:49:17;9.10;48.80
9425;DHT22;17139;52.140;11.636;2024-03-07T13:51:43;8.80;50.70
9425;DHT22;17139;52.140;11.636;2024-03-07T13:54:09;8.60;51.60
9425;DHT22;17139;52.140;11.636;2024-03-07T13:56:44;8.50;52.40
9425;DHT22;17139;52.140;11.636;2024-03-07T14:02:44;8.60;51.20
9425;DHT22;17139;52.140;11.636;2024-03-07T14:05:52;8.50;52.50
9425;DHT22;17139;52.140;11.636;2024-03-07T14:14:44;8.30;53.30
9425;DHT22;17139;52.140;11.636;2024-03-07T14:17:52;8.20;53.10
9425;DHT22;17139;52.140;11.636;2024-03-07T14:23:45;8.10;53.20
9425;DHT22;17139;52.140;11.636;2024-03-07T14:27:07;8.10;53.30
9425;DHT22;17139;52.140;11.636;2024-03-07T14:29:41;8.90;48.40
9425;DHT22;17139;52.140;11.636;2024-03-07T14:32:10;9.20;46.90
9425;DHT22;17139;52.140;11.636;2024-03-07T14:34:47;9.20;47.00
9425;DHT22;17139;52.140;11.636;2024-03-07T14:37:20;8.90;49.30
9425;DHT22;17139;52.140;11.636;2024-03-07T14:39:48;8.60;50.90
9425;DHT22;17139;52.140;11.636;2024-03-07T14:42:16;9.00;47.60
9425;DHT22;17139;52.140;11.636;2024-03-07T14:44:43;9.40;45.70
9425;DHT22;17139;52.140;11.636;2024-03-07T14:47:09;8.90;48.40
9425;DHT22;17139;52.140;11.636;2024-03-07T14:49:35;8.50;49.30
9425;DHT22;17139;52.140;11.636;2024-03-07T14:52:03;8.30;50.30
9425;DHT22;17139;52.140;11.636;2024-03-07T14:54:29;8.20;51.00
9425;DHT22;17139;52.140;11.636;2024-03-07T14:56:56;8.10;51.50
9425;DHT22;17139;52.140;11.636;2024-03-07T14:59:22;8.00;51.80
9425;DHT22;17139;52.140;11.636;2024-03-07T15:01:48;8.00;52.00
9425;DHT22;17139;52.140;11.636;2024-03-07T15:04:14;8.00;51.70
9425;DHT22;17139;52.140;11.636;2024-03-07T15:06:40;8.00;52.00
9425;DHT22;17139;52.140;11.636;2024-03-07T15:09:08;7.90;52.10
9425;DHT22;17139;52.140;11.636;2024-03-07T15:11:34;7.90;52.10
9425;DHT22;17139;52.140;11.636;2024-03-07T15:14:01;7.90;52.60
9425;DHT22;17139;52.140;11.636;2024-03-07T15:16:27;8.60;48.00
9425;DHT22;17139;52.140;11.636;2024-03-07T15:18:53;8.30;50.40
9425;DHT22;17139;52.140;11.636;2024-03-07T15:21:19;8.20;50.20
9425;DHT22;17139;52.140;11.636;2024-03-07T15:23:45;7.90;50.70
9425;DHT22;17139;52.140;11.636;2024-03-07T15:26:12;7.80;51.30
9425;DHT22;17139;52.140;11.636;2024-03-07T15:28:38;7.70;51.60
9425;DHT22;17139;52.140;11.636;2024-03-07T15:31:04;7.70;52.00
9425;DHT22;17139;52.140;11.636;2024-03-07T15:33:29;7.60;52.10
9425;DHT22;17139;52.140;11.636;2024-03-07T15:35:55;7.50;51.80
9425;DHT22;17139;52.140;11.636;2024-03-07T15:38:21;7.40;52.00
9425;DHT22;17139;52.140;11.636;2024-03-07T15:40:47;7.40;52.20
9425;DHT22;17139;52.140;11.636;2024-03-07T15:43:14;7.40;52.30
9425;DHT22;17139;52.140;11.636;2024-03-07T15:45:40;7.30;52.20
9425;DHT22;17139;52.140;11.636;2024-03-07T15:48:06;7.30;52.40
9425;DHT22;17139;52.140;11.636;2024-03-07T15:50:32;7.30;52.50
9425;DHT22;17139;52.140;11.636;2024-03-07T15:52:58;7.30;52.60
9425;DHT22;17139;52.140;11.636;2024-03-07T15:55:25;7.30;52.60